sensor_id;sensor_type;location;lat;lon;timestamp;pressure;altitude;pressure_sealevel;temperature;humidity
26865;BME280;40618;51.166;10.322;2023-02-12T00:01:00;99315.88;;;3.68;88.74
26865;BME280;40618;51.166;10.322;2023-02-12T00:03:26;99315.09;;;3.70;89.10
26865;BME280;40618;51.166;10.322;2023-02-12T00:05:51;99313.34;;;3.69;88.75
26865;BME280;40618;51.166;10.322;2023-02-12T00:08:17;99317.56;;;3.69;88.57
26865;BME280;40618;51.166;10.322;2023-02-12T00:10:43;99320.22;;;3.70;88.85
26865;BME280;40618;51.166;10.322;2023-02-12T00:13:09;99321.91;;;3.71;88.84
26865;BME280;40618;51.166;10.322;2023-02-12T00:15:39;99321.97;;;3.73;89.04
26865;BME280;40618;51.166;10.322;2023-02-12T00:18:06;99328.81;;;3.74;88.38
26865;BME280;40618;51.166;10.322;2023-02-12T00:20:32;99326.25;;;3.74;88.96
26865;BME280;40618;51.166;10.322;2023-02-12T00:22:58;99328.78;;;3.72;88.72
26865;BME280;40618;51.166;10.322;2023-02-12T00:25:23;99328.78;;;3.72;88.31
26865;BME280;40618;51.166;10.322;2023-02-12T00:27:49;99341.53;;;3.69;88.50
26865;BME280;40618;51.166;10.322;2023-02-12T00:30:14;99339.78;;;3.68;88.41
26865;BME280;40618;51.166;10.322;2023-02-12T00:32:40;99338.03;;;3.67;88.65
26865;BME280;40618;51.166;10.322;2023-02-12T00:35:06;99334.63;;;3.67;88.61
26865;BME280;40618;51.166;10.322;2023-02-12T00:37:32;99328.63;;;3.66;88.60
26865;BME280;40618;51.166;10.322;2023-02-12T00:39:57;99332.88;;;3.66;88.88
26865;BME280;40618;51.166;10.322;2023-02-12T00:42:23;99326.91;;;3.65;88.42
26865;BME280;40618;51.166;10.322;2023-02-12T00:44:48;99335.44;;;3.66;88.49
26865;BME280;40618;51.166;10.322;2023-02-12T00:47:14;99342.25;;;3.65;88.58
26865;BME280;40618;51.166;10.322;2023-02-12T00:49:41;99338.88;;;3.66;88.65
26865;BME280;40618;51.166;10.322;2023-02-12T00:52:07;99340.59;;;3.67;88.21
26865;BME280;40618;51.166;10.322;2023-02-12T00:54:32;99338.88;;;3.66;88.96
26865;BME280;40618;51.166;10.322;2023-02-12T00:56:58;99337.13;;;3.65;88.71
26865;BME280;40618;51.166;10.322;2023-02-12T00:59:24;99337.97;;;3.64;88.77
26865;BME280;40618;51.166;10.322;2023-02-12T01:01:52;99331.09;;;3.63;88.74
26865;BME280;40618;51.166;10.322;2023-02-12T01:04:19;99334.53;;;3.64;88.97
26865;BME280;40618;51.166;10.322;2023-02-12T01:06:45;99328.53;;;3.63;88.58
26865;BME280;40618;51.166;10.322;2023-02-12T01:09:12;99335.41;;;3.64;88.46
26865;BME280;40618;51.166;10.322;2023-02-12T01:11:38;99331.91;;;3.62;88.47
26865;BME280;40618;51.166;10.322;2023-02-12T01:14:04;99330.19;;;3.61;88.31
26865;BME280;40618;51.166;10.322;2023-02-12T01:16:30;99329.34;;;3.62;88.82
26865;BME280;40618;51.166;10.322;2023-02-12T01:18:58;99333.66;;;3.63;88.69
26865;BME280;40618;51.166;10.322;2023-02-12T01:21:28;99334.56;;;3.65;88.65
26865;BME280;40618;51.166;10.322;2023-02-12T01:23:57;99338.03;;;3.67;88.78
26865;BME280;40618;51.166;10.322;2023-02-12T01:26:24;99334.69;;;3.70;88.81
26865;BME280;40618;51.166;10.322;2023-02-12T01:28:52;99331.34;;;3.72;89.13
26865;BME280;40618;51.166;10.322;2023-02-12T01:31:21;99323.66;;;3.72;88.51
26865;BME280;40618;51.166;10.322;2023-02-12T01:33:52;99324.44;;;3.70;88.74
26865;BME280;40618;51.166;10.322;2023-02-12T01:36:19;99322.78;;;3.70;88.90
26865;BME280;40618;51.166;10.322;2023-02-12T01:38:46;99323.66;;;3.72;88.66
26865;BME280;40618;51.166;10.322;2023-02-12T01:41:15;99319.47;;;3.75;88.77
26865;BME280;40618;51.166;10.322;2023-02-12T01:43:42;99321.19;;;3.76;89.40
26865;BME280;40618;51.166;10.322;2023-02-12T01:46:12;99316.97;;;3.78;89.33
26865;BME280;40618;51.166;10.322;2023-02-12T01:48:44;99319.56;;;3.79;89.14
26865;BME280;40618;51.166;10.322;2023-02-12T01:51:15;99324.78;;;3.82;89.26
26865;BME280;40618;51.166;10.322;2023-02-12T01:53:50;99317.09;;;3.82;89.28
26865;BME280;40618;51.166;10.322;2023-02-12T01:56:19;99317.97;;;3.83;89.23
26865;BME280;40618;51.166;10.322;2023-02-12T01:58:50;99324.81;;;3.84;88.84
26865;BME280;40618;51.166;10.322;2023-02-12T02:01:21;99316.22;;;3.82;89.19
26865;BME280;40618;51.166;10.322;2023-02-12T02:03:52;99323.13;;;3.84;89.17
26865;BME280;40618;51.166;10.322;2023-02-12T02:06:26;99327.38;;;3.84;88.84
26865;BME280;40618;51.166;10.322;2023-02-12T02:08:56;99325.59;;;3.81;88.87
26865;BME280;40618;51.166;10.322;2023-02-12T02:11:22;99327.31;;;3.81;88.62
26865;BME280;40618;51.166;10.322;2023-02-12T02:14:06;99324.69;;;3.79;89.23
26865;BME280;40618;51.166;10.322;2023-02-12T02:25:53;99327.16;;;3.75;88.85
26865;BME280;40618;51.166;10.322;2023-02-12T02:31:31;99322.84;;;3.73;88.77
26865;BME280;40618;51.166;10.322;2023-02-12T02:39:54;99320.22;;;3.70;88.90
26865;BME280;40618;51.166;10.322;2023-02-12T02:45:42;99309.06;;;3.70;89.09
26865;BME280;40618;51.166;10.322;2023-02-12T02:48:19;99308.22;;;3.69;89.31
26865;BME280;40618;51.166;10.322;2023-02-12T02:50:58;99309.88;;;3.69;88.76
26865;BME280;40618;51.166;10.322;2023-02-12T02:53:35;99312.53;;;3.70;88.90
26865;BME280;40618;51.166;10.322;2023-02-12T02:56:15;99299.75;;;3.72;89.15
26865;BME280;40618;51.166;10.322;2023-02-12T02:58:54;99314.34;;;3.75;89.06
26865;BME280;40618;51.166;10.322;2023-02-12T03:01:38;99306.69;;;3.76;89.53
26865;BME280;40618;51.166;10.322;2023-02-12T03:04:23;99306.75;;;3.79;89.60
26865;BME280;40618;51.166;10.322;2023-02-12T03:07:02;99303.38;;;3.80;89.53
26865;BME280;40618;51.166;10.322;2023-02-12T03:10:06;99299.19;;;3.84;89.05
26865;BME280;40618;51.166;10.322;2023-02-12T03:12:45;99298.44;;;3.88;89.21
26865;BME280;40618;51.166;10.322;2023-02-12T03:15:18;99299.41;;;3.92;89.74
26865;BME280;40618;51.166;10.322;2023-02-12T03:17:49;99299.47;;;3.95;89.17
26865;BME280;40618;51.166;10.322;2023-02-12T03:20:22;99307.19;;;3.96;89.78
26865;BME280;40618;51.166;10.322;2023-02-12T03:23:17;99298.69;;;3.97;89.71
26865;BME280;40618;51.166;10.322;2023-02-12T03:25:49;99290.25;;;4.01;89.42
26865;BME280;40618;51.166;10.322;2023-02-12T03:28:32;99292.84;;;4.03;89.50
26865;BME280;40618;51.166;10.322;2023-02-12T03:31:07;99296.34;;;4.05;89.52
26865;BME280;40618;51.166;10.322;2023-02-12T03:33:51;99304.88;;;4.05;89.63
26865;BME280;40618;51.166;10.322;2023-02-12T03:38:57;99310.91;;;4.06;89.31
26865;BME280;40618;51.166;10.322;2023-02-12T03:41:40;99309.19;;;4.06;89.84
26865;BME280;40618;51.166;10.322;2023-02-12T03:44:33;99306.63;;;4.06;89.60
26865;BME280;40618;51.166;10.322;2023-02-12T03:50:14;99304.94;;;4.09;89.86
26865;BME280;40618;51.166;10.322;2023-02-12T03:52:45;99297.31;;;4.10;89.73
26865;BME280;40618;51.166;10.322;2023-02-12T03:55:14;99316.19;;;4.14;89.93
26865;BME280;40618;51.166;10.322;2023-02-12T03:57:43;99309.41;;;4.14;89.53
26865;BME280;40618;51.166;10.322;2023-02-12T04:00:23;99304.34;;;4.17;90.10
26865;BME280;40618;51.166;10.322;2023-02-12T04:02:50;99304.38;;;4.19;89.95
26865;BME280;40618;51.166;10.322;2023-02-12T04:05:18;99306.06;;;4.18;89.98
26865;BME280;40618;51.166;10.322;2023-02-12T04:07:48;99307.78;;;4.19;89.91
26865;BME280;40618;51.166;10.322;2023-02-12T04:10:15;99312.94;;;4.21;90.23
26865;BME280;40618;51.166;10.322;2023-02-12T04:13:02;99321.59;;;4.24;89.86
26865;BME280;40618;51.166;10.322;2023-02-12T04:15:50;99317.41;;;4.27;90.04
26865;BME280;40618;51.166;10.322;2023-02-12T04:18:42;99324.25;;;4.28;90.01
26865;BME280;40618;51.166;10.322;2023-02-12T04:24:33;99329.47;;;4.31;89.90
26865;BME280;40618;51.166;10.322;2023-02-12T04:27:28;99329.47;;;4.31;89.76
26865;BME280;40618;51.166;10.322;2023-02-12T04:30:20;99332.00;;;4.29;90.03
26865;BME280;40618;51.166;10.322;2023-02-12T04:32:50;99333.72;;;4.30;89.88
26865;BME280;40618;51.166;10.322;2023-02-12T04:35:30;99353.41;;;4.31;90.25
26865;BME280;40618;51.166;10.322;2023-02-12T04:38:20;99353.41;;;4.31;89.99
26865;BME280;40618;51.166;10.322;2023-02-12T04:40:52;99351.69;;;4.32;89.89
26865;BME280;40618;51.166;10.322;2023-02-12T04:43:33;99350.03;;;4.32;90.07
26865;BME280;40618;51.166;10.322;2023-02-12T04:46:01;99362.84;;;4.32;89.93
26865;BME280;40618;51.166;10.322;2023-02-12T04:48:28;99364.59;;;4.33;90.07
26865;BME280;40618;51.166;10.322;2023-02-12T04:50:53;99366.28;;;4.34;89.87
26865;BME280;40618;51.166;10.322;2023-02-12T04:53:19;99361.91;;;4.30;89.68
26865;BME280;40618;51.166;10.322;2023-02-12T04:55:45;99367.84;;;4.28;89.93
26865;BME280;40618;51.166;10.322;2023-02-12T04:58:12;99369.44;;;4.22;89.83
26865;BME280;40618;51.166;10.322;2023-02-12T05:00:38;99376.19;;;4.20;89.99
26865;BME280;40618;51.166;10.322;2023-02-12T05:03:04;99371.94;;;4.21;89.67
26865;BME280;40618;51.166;10.322;2023-02-12T05:05:30;99366.72;;;4.18;90.02
26865;BME280;40618;51.166;10.322;2023-02-12T05:07:55;99374.41;;;4.18;90.14
26865;BME280;40618;51.166;10.322;2023-02-12T05:10:21;99371.00;;;4.17;89.75
26865;BME280;40618;51.166;10.322;2023-02-12T05:12:47;99374.34;;;4.15;89.51
26865;BME280;40618;51.166;10.322;2023-02-12T05:15:15;99370.94;;;4.14;90.07
26865;BME280;40618;51.166;10.322;2023-02-12T05:17:41;99360.75;;;4.17;89.79
26865;BME280;40618;51.166;10.322;2023-02-12T05:20:07;99363.31;;;4.17;89.96
26865;BME280;40618;51.166;10.322;2023-02-12T05:22:33;99368.47;;;4.19;89.95
26865;BME280;40618;51.166;10.322;2023-02-12T05:24:58;99373.63;;;4.20;89.95
26865;BME280;40618;51.166;10.322;2023-02-12T05:27:24;99372.81;;;4.21;89.86
26865;BME280;40618;51.166;10.322;2023-02-12T05:29:50;99375.41;;;4.23;89.91
26865;BME280;40618;51.166;10.322;2023-02-12T05:32:15;99374.63;;;4.26;90.20
26865;BME280;40618;51.166;10.322;2023-02-12T05:34:41;99372.13;;;4.29;89.80
26865;BME280;40618;51.166;10.322;2023-02-12T05:37:06;99373.91;;;4.31;89.89
26865;BME280;40618;51.166;10.322;2023-02-12T05:39:32;99374.84;;;4.33;90.33
26865;BME280;40618;51.166;10.322;2023-02-12T05:41:58;99378.31;;;4.35;90.25
26865;BME280;40618;51.166;10.322;2023-02-12T05:44:23;99379.88;;;4.30;89.79
26865;BME280;40618;51.166;10.322;2023-02-12T05:46:49;99380.63;;;4.26;90.19
26865;BME280;40618;51.166;10.322;2023-02-12T05:49:14;99377.16;;;4.24;89.97
26865;BME280;40618;51.166;10.322;2023-02-12T05:51:40;99377.13;;;4.22;90.10
26865;BME280;40618;51.166;10.322;2023-02-12T05:54:06;99375.34;;;4.20;89.82
26865;BME280;40618;51.166;10.322;2023-02-12T05:56:34;99373.59;;;4.19;89.73
26865;BME280;40618;51.166;10.322;2023-02-12T05:59:16;99367.47;;;4.14;89.51
26865;BME280;40618;51.166;10.322;2023-02-12T06:01:45;99376.84;;;4.12;89.99
26865;BME280;40618;51.166;10.322;2023-02-12T06:04:15;99378.66;;;4.16;89.91
26865;BME280;40618;51.166;10.322;2023-02-12T06:06:43;99383.94;;;4.22;90.10
26865;BME280;40618;51.166;10.322;2023-02-12T06:09:10;99384.94;;;4.27;90.04
26865;BME280;40618;51.166;10.322;2023-02-12T06:11:38;99384.94;;;4.27;90.47
26865;BME280;40618;51.166;10.322;2023-02-12T06:14:11;99376.44;;;4.30;89.79
26865;BME280;40618;51.166;10.322;2023-02-12T06:16:39;99380.72;;;4.29;90.39
26865;BME280;40618;51.166;10.322;2023-02-12T06:19:08;99385.84;;;4.29;89.93
26865;BME280;40618;51.166;10.322;2023-02-12T06:21:34;99386.75;;;4.31;89.94
26865;BME280;40618;51.166;10.322;2023-02-12T06:24:00;99382.53;;;4.33;90.22
26865;BME280;40618;51.166;10.322;2023-02-12T06:26:26;99380.78;;;4.32;90.33
26865;BME280;40618;51.166;10.322;2023-02-12T06:28:52;99386.81;;;4.34;90.17
26865;BME280;40618;51.166;10.322;2023-02-12T06:31:26;99386.81;;;4.34;90.29
26865;BME280;40618;51.166;10.322;2023-02-12T06:33:54;99386.81;;;4.34;90.07
26865;BME280;40618;51.166;10.322;2023-02-12T06:36:23;99395.38;;;4.33;90.50
26865;BME280;40618;51.166;10.322;2023-02-12T06:38:50;99402.97;;;4.32;89.97
26865;BME280;40618;51.166;10.322;2023-02-12T06:41:16;99408.13;;;4.32;90.09
26865;BME280;40618;51.166;10.322;2023-02-12T06:43:42;99411.59;;;4.34;90.23
26865;BME280;40618;51.166;10.322;2023-02-12T06:46:08;99410.81;;;4.36;90.30
26865;BME280;40618;51.166;10.322;2023-02-12T06:48:35;99412.50;;;4.36;90.42
26865;BME280;40618;51.166;10.322;2023-02-12T06:51:09;99405.72;;;4.38;89.97
26865;BME280;40618;51.166;10.322;2023-02-12T06:53:37;99413.41;;;4.38;90.27
26865;BME280;40618;51.166;10.322;2023-02-12T06:56:05;99416.84;;;4.38;90.20
26865;BME280;40618;51.166;10.322;2023-02-12T06:58:35;99412.56;;;4.37;90.28
26865;BME280;40618;51.166;10.322;2023-02-12T07:01:13;99416.00;;;4.38;90.04
26865;BME280;40618;51.166;10.322;2023-02-12T07:03:48;99416.81;;;4.37;90.41
26865;BME280;40618;51.166;10.322;2023-02-12T07:06:15;99421.09;;;4.36;90.34
26865;BME280;40618;51.166;10.322;2023-02-12T07:08:41;99420.25;;;4.37;90.22
26865;BME280;40618;51.166;10.322;2023-02-12T07:11:07;99421.16;;;4.39;90.69
26865;BME280;40618;51.166;10.322;2023-02-12T07:13:33;99416.88;;;4.40;90.53
26865;BME280;40618;51.166;10.322;2023-02-12T07:16:07;99420.34;;;4.40;90.22
26865;BME280;40618;51.166;10.322;2023-02-12T07:18:36;99418.63;;;4.41;90.04
26865;BME280;40618;51.166;10.322;2023-02-12T07:21:03;99422.97;;;4.44;90.51
26865;BME280;40618;51.166;10.322;2023-02-12T07:23:30;99423.00;;;4.45;90.58
26865;BME280;40618;51.166;10.322;2023-02-12T07:25:58;99423.91;;;4.46;90.38
26865;BME280;40618;51.166;10.322;2023-02-12T07:28:25;99433.34;;;4.48;90.33
26865;BME280;40618;51.166;10.322;2023-02-12T07:30:52;99437.63;;;4.48;90.49
26865;BME280;40618;51.166;10.322;2023-02-12T07:33:19;99438.41;;;4.45;90.35
26865;BME280;40618;51.166;10.322;2023-02-12T07:35:45;99440.06;;;4.43;90.27
26865;BME280;40618;51.166;10.322;2023-02-12T07:38:11;99441.75;;;4.43;90.08
26865;BME280;40618;51.166;10.322;2023-02-12T07:40:37;99445.19;;;4.43;90.21
26865;BME280;40618;51.166;10.322;2023-02-12T07:43:03;99446.97;;;4.46;90.57
26865;BME280;40618;51.166;10.322;2023-02-12T07:45:29;99443.59;;;4.48;90.38
26865;BME280;40618;51.166;10.322;2023-02-12T07:47:54;99449.66;;;4.50;90.83
26865;BME280;40618;51.166;10.322;2023-02-12T07:50:20;99451.44;;;4.53;90.27
26865;BME280;40618;51.166;10.322;2023-02-12T07:52:47;99447.19;;;4.55;90.47
26865;BME280;40618;51.166;10.322;2023-02-12T07:55:14;99449.81;;;4.56;90.54
26865;BME280;40618;51.166;10.322;2023-02-12T07:57:40;99449.91;;;4.60;90.58
26865;BME280;40618;51.166;10.322;2023-02-12T08:00:06;99454.25;;;4.62;90.71
26865;BME280;40618;51.166;10.322;2023-02-12T08:02:34;99455.09;;;4.63;90.48
26865;BME280;40618;51.166;10.322;2023-02-12T08:04:59;99456.03;;;4.65;90.36
26865;BME280;40618;51.166;10.322;2023-02-12T08:07:25;99455.22;;;4.67;90.83
26865;BME280;40618;51.166;10.322;2023-02-12T08:09:51;99457.75;;;4.66;90.79
26865;BME280;40618;51.166;10.322;2023-02-12T08:12:17;99462.91;;;4.67;90.61
26865;BME280;40618;51.166;10.322;2023-02-12T08:14:43;99458.75;;;4.71;90.64
26865;BME280;40618;51.166;10.322;2023-02-12T08:17:09;99460.47;;;4.72;90.61
26865;BME280;40618;51.166;10.322;2023-02-12T08:19:35;99469.03;;;4.72;90.71
26865;BME280;40618;51.166;10.322;2023-02-12T08:22:01;99466.53;;;4.75;90.84
26865;BME280;40618;51.166;10.322;2023-02-12T08:24:28;99460.56;;;4.75;90.66
26865;BME280;40618;51.166;10.322;2023-02-12T08:26:54;99462.25;;;4.74;90.54
26865;BME280;40618;51.166;10.322;2023-02-12T08:29:24;99454.56;;;4.74;90.87
26865;BME280;40618;51.166;10.322;2023-02-12T08:31:55;99460.56;;;4.75;90.88
26865;BME280;40618;51.166;10.322;2023-02-12T08:34:31;99460.63;;;4.78;90.67
26865;BME280;40618;51.166;10.322;2023-02-12T08:36:58;99461.50;;;4.79;90.67
26865;BME280;40618;51.166;10.322;2023-02-12T08:39:27;99455.53;;;4.80;90.43
26865;BME280;40618;51.166;10.322;2023-02-12T08:41:54;99454.69;;;4.81;90.44
26865;BME280;40618;51.166;10.322;2023-02-12T08:44:21;99453.88;;;4.82;90.87
26865;BME280;40618;51.166;10.322;2023-02-12T08:46:49;99459.84;;;4.81;90.74
26865;BME280;40618;51.166;10.322;2023-02-12T08:49:19;99461.63;;;4.83;90.67
26865;BME280;40618;51.166;10.322;2023-02-12T08:51:49;99465.97;;;4.86;90.87
26865;BME280;40618;51.166;10.322;2023-02-12T08:54:18;99467.78;;;4.90;91.00
26865;BME280;40618;51.166;10.322;2023-02-12T08:56:46;99462.66;;;4.91;90.99
26865;BME280;40618;51.166;10.322;2023-02-12T08:59:13;99459.31;;;4.94;91.01
26865;BME280;40618;51.166;10.322;2023-02-12T09:01:41;99468.75;;;4.95;91.07
26865;BME280;40618;51.166;10.322;2023-02-12T09:04:13;99473.09;;;4.98;90.99
26865;BME280;40618;51.166;10.322;2023-02-12T09:06:42;99478.25;;;4.98;90.70
26865;BME280;40618;51.166;10.322;2023-02-12T09:09:08;99474.81;;;4.99;90.80
26865;BME280;40618;51.166;10.322;2023-02-12T09:11:34;99476.53;;;4.98;90.80
26865;BME280;40618;51.166;10.322;2023-02-12T09:14:02;99483.41;;;4.99;90.89
26865;BME280;40618;51.166;10.322;2023-02-12T09:16:31;99484.25;;;4.98;90.77
26865;BME280;40618;51.166;10.322;2023-02-12T09:18:58;99491.09;;;4.98;90.91
26865;BME280;40618;51.166;10.322;2023-02-12T09:21:24;99488.59;;;5.01;90.42
26865;BME280;40618;51.166;10.322;2023-02-12T09:23:51;99491.22;;;5.04;90.85
26865;BME280;40618;51.166;10.322;2023-02-12T09:26:20;99499.84;;;5.06;90.76
26865;BME280;40618;51.166;10.322;2023-02-12T09:28:49;99494.78;;;5.09;90.85
26865;BME280;40618;51.166;10.322;2023-02-12T09:31:18;99495.66;;;5.11;90.68
26865;BME280;40618;51.166;10.322;2023-02-12T09:33:47;99496.56;;;5.12;90.62
26865;BME280;40618;51.166;10.322;2023-02-12T09:36:15;99504.22;;;5.10;90.63
26865;BME280;40618;51.166;10.322;2023-02-12T09:38:42;99499.88;;;5.07;90.69
26865;BME280;40618;51.166;10.322;2023-02-12T09:44:14;99503.34;;;5.09;90.97
26865;BME280;40618;51.166;10.322;2023-02-12T09:46:48;99502.50;;;5.11;90.86
26865;BME280;40618;51.166;10.322;2023-02-12T09:51:57;99512.88;;;5.15;90.40
26865;BME280;40618;51.166;10.322;2023-02-12T09:54:28;99514.59;;;5.15;90.93
26865;BME280;40618;51.166;10.322;2023-02-12T09:57:04;99519.78;;;5.16;91.14
26865;BME280;40618;51.166;10.322;2023-02-12T09:59:44;99528.28;;;5.15;90.89
26865;BME280;40618;51.166;10.322;2023-02-12T10:02:16;99532.56;;;5.15;90.70
26865;BME280;40618;51.166;10.322;2023-02-12T10:04:45;99528.38;;;5.17;91.09
26865;BME280;40618;51.166;10.322;2023-02-12T10:07:18;99523.16;;;5.15;90.74
26865;BME280;40618;51.166;10.322;2023-02-12T10:13:17;99532.53;;;5.13;90.76
26865;BME280;40618;51.166;10.322;2023-02-12T10:25:45;99536.09;;;5.18;90.82
26865;BME280;40618;51.166;10.322;2023-02-12T10:28:18;99536.06;;;5.17;90.70
26865;BME280;40618;51.166;10.322;2023-02-12T10:31:03;99538.66;;;5.18;90.94
26865;BME280;40618;51.166;10.322;2023-02-12T10:33:50;99545.59;;;5.21;90.78
26865;BME280;40618;51.166;10.322;2023-02-12T10:39:55;99542.16;;;5.22;90.99
26865;BME280;40618;51.166;10.322;2023-02-12T10:42:32;99541.31;;;5.21;90.83
26865;BME280;40618;51.166;10.322;2023-02-12T10:45:16;99538.75;;;5.21;90.84
26865;BME280;40618;51.166;10.322;2023-02-12T10:47:45;99537.03;;;5.22;91.00
26865;BME280;40618;51.166;10.322;2023-02-12T10:50:24;99534.56;;;5.25;90.61
26865;BME280;40618;51.166;10.322;2023-02-12T10:53:00;99537.94;;;5.24;90.77
26865;BME280;40618;51.166;10.322;2023-02-12T10:55:32;99536.19;;;5.23;90.93
26865;BME280;40618;51.166;10.322;2023-02-12T10:58:00;99534.47;;;5.22;90.67
26865;BME280;40618;51.166;10.322;2023-02-12T11:00:32;99531.91;;;5.23;90.95
26865;BME280;40618;51.166;10.322;2023-02-12T11:05:39;99525.25;;;5.30;91.11
26865;BME280;40618;51.166;10.322;2023-02-12T11:08:06;99520.16;;;5.32;91.09
26865;BME280;40618;51.166;10.322;2023-02-12T11:10:51;99521.84;;;5.31;90.92
26865;BME280;40618;51.166;10.322;2023-02-12T11:13:25;99535.59;;;5.32;90.67
26865;BME280;40618;51.166;10.322;2023-02-12T11:15:52;99532.94;;;5.30;90.57
26865;BME280;40618;51.166;10.322;2023-02-12T11:18:27;99531.19;;;5.28;90.71
26865;BME280;40618;51.166;10.322;2023-02-12T11:23:28;99527.81;;;5.30;91.10
26865;BME280;40618;51.166;10.322;2023-02-12T11:26:04;99522.75;;;5.32;90.90
26865;BME280;40618;51.166;10.322;2023-02-12T11:28:58;99521.06;;;5.34;90.96
26865;BME280;40618;51.166;10.322;2023-02-12T11:31:34;99510.81;;;5.35;91.04
26865;BME280;40618;51.166;10.322;2023-02-12T11:34:13;99510.84;;;5.37;91.11
26865;BME280;40618;51.166;10.322;2023-02-12T11:36:44;99516.13;;;5.41;90.81
26865;BME280;40618;51.166;10.322;2023-02-12T11:39:20;99520.41;;;5.42;91.02
26865;BME280;40618;51.166;10.322;2023-02-12T11:41:52;99508.44;;;5.43;91.12
26865;BME280;40618;51.166;10.322;2023-02-12T11:44:33;99510.13;;;5.42;90.78
26865;BME280;40618;51.166;10.322;2023-02-12T11:47:36;99513.53;;;5.41;91.30
26865;BME280;40618;51.166;10.322;2023-02-12T11:50:28;99509.19;;;5.39;91.04
26865;BME280;40618;51.166;10.322;2023-02-12T11:53:02;99497.28;;;5.42;90.98
26865;BME280;40618;51.166;10.322;2023-02-12T11:55:36;99499.00;;;5.43;90.92
26865;BME280;40618;51.166;10.322;2023-02-12T11:58:21;99500.75;;;5.45;90.80
26865;BME280;40618;51.166;10.322;2023-02-12T12:03:36;99499.00;;;5.43;91.25
26865;BME280;40618;51.166;10.322;2023-02-12T12:11:40;99493.88;;;5.43;90.95
26865;BME280;40618;51.166;10.322;2023-02-12T12:14:22;99493.06;;;5.45;90.97
26865;BME280;40618;51.166;10.322;2023-02-12T12:17:05;99490.50;;;5.46;90.82
26865;BME280;40618;51.166;10.322;2023-02-12T12:20:08;99498.28;;;5.49;91.29
26865;BME280;40618;51.166;10.322;2023-02-12T12:23:08;99492.19;;;5.44;91.13
26865;BME280;40618;51.166;10.322;2023-02-12T12:25:45;99498.19;;;5.45;91.13
26865;BME280;40618;51.166;10.322;2023-02-12T12:28:46;99495.59;;;5.43;90.83
26865;BME280;40618;51.166;10.322;2023-02-12T12:31:32;99493.88;;;5.43;90.93
26865;BME280;40618;51.166;10.322;2023-02-12T12:34:14;99488.78;;;5.45;91.21
26865;BME280;40618;51.166;10.322;2023-02-12T12:36:45;99493.13;;;5.48;91.11
26865;BME280;40618;51.166;10.322;2023-02-12T12:52:10;99486.47;;;5.57;91.40
26865;BME280;40618;51.166;10.322;2023-02-12T12:57:44;99481.44;;;5.61;90.76
26865;BME280;40618;51.166;10.322;2023-02-12T13:00:40;99480.56;;;5.62;91.15
26865;BME280;40618;51.166;10.322;2023-02-12T13:17:23;99466.06;;;5.64;91.57
26865;BME280;40618;51.166;10.322;2023-02-12T13:20:16;99460.94;;;5.64;90.96
26865;BME280;40618;51.166;10.322;2023-02-12T13:25:57;99461.00;;;5.67;90.94
26865;BME280;40618;51.166;10.322;2023-02-12T13:28:48;99461.06;;;5.70;91.23
26865;BME280;40618;51.166;10.322;2023-02-12T13:31:21;99459.41;;;5.72;91.26
26865;BME280;40618;51.166;10.322;2023-02-12T13:33:52;99462.78;;;5.71;91.13
26865;BME280;40618;51.166;10.322;2023-02-12T13:36:21;99467.06;;;5.69;90.80
26865;BME280;40618;51.166;10.322;2023-02-12T13:41:54;99462.56;;;5.60;91.05
26865;BME280;40618;51.166;10.322;2023-02-12T13:44:53;99467.69;;;5.60;90.87
26865;BME280;40618;51.166;10.322;2023-02-12T13:56:10;99460.75;;;5.56;90.88
26865;BME280;40618;51.166;10.322;2023-02-12T13:58:46;99458.19;;;5.56;90.87
26865;BME280;40618;51.166;10.322;2023-02-12T14:07:09;99462.50;;;5.57;91.07
26865;BME280;40618;51.166;10.322;2023-02-12T14:09:42;99460.81;;;5.59;91.25
26865;BME280;40618;51.166;10.322;2023-02-12T14:12:43;99462.59;;;5.62;91.17
26865;BME280;40618;51.166;10.322;2023-02-12T14:15:27;99463.50;;;5.64;91.06
26865;BME280;40618;51.166;10.322;2023-02-12T14:18:20;99466.06;;;5.64;91.02
26865;BME280;40618;51.166;10.322;2023-02-12T14:23:42;99460.91;;;5.62;90.87
26865;BME280;40618;51.166;10.322;2023-02-12T14:26:16;99462.53;;;5.58;90.59
26865;BME280;40618;51.166;10.322;2023-02-12T14:31:35;99473.47;;;5.50;90.83
26865;BME280;40618;51.166;10.322;2023-02-12T14:38:59;99466.59;;;5.49;90.91
26865;BME280;40618;51.166;10.322;2023-02-12T14:41:32;99465.69;;;5.47;90.94
26865;BME280;40618;51.166;10.322;2023-02-12T14:50:13;99455.38;;;5.45;90.79
26865;BME280;40618;51.166;10.322;2023-02-12T14:52:48;99461.44;;;5.47;90.75
26865;BME280;40618;51.166;10.322;2023-02-12T14:55:29;99464.06;;;5.50;91.00
26865;BME280;40618;51.166;10.322;2023-02-12T14:58:01;99458.13;;;5.53;90.66
26865;BME280;40618;51.166;10.322;2023-02-12T15:00:38;99457.25;;;5.52;91.02
26865;BME280;40618;51.166;10.322;2023-02-12T15:05:52;99464.03;;;5.49;90.85
26865;BME280;40618;51.166;10.322;2023-02-12T15:09:01;99464.78;;;5.45;90.76
26865;BME280;40618;51.166;10.322;2023-02-12T15:11:46;99468.16;;;5.42;90.76
26865;BME280;40618;51.166;10.322;2023-02-12T15:14:33;99463.03;;;5.43;91.15
26865;BME280;40618;51.166;10.322;2023-02-12T15:17:15;99468.19;;;5.43;90.81
26865;BME280;40618;51.166;10.322;2023-02-12T15:22:38;99466.41;;;5.41;90.48
26865;BME280;40618;51.166;10.322;2023-02-12T15:25:15;99468.97;;;5.41;90.54
26865;BME280;40618;51.166;10.322;2023-02-12T15:28:10;99464.72;;;5.41;90.99
26865;BME280;40618;51.166;10.322;2023-02-12T15:30:46;99465.59;;;5.42;90.91
26865;BME280;40618;51.166;10.322;2023-02-12T15:33:23;99469.00;;;5.42;91.13
26865;BME280;40618;51.166;10.322;2023-02-12T15:35:52;99472.47;;;5.43;90.64
26865;BME280;40618;51.166;10.322;2023-02-12T15:38:32;99457.94;;;5.45;90.94
26865;BME280;40618;51.166;10.322;2023-02-12T15:41:02;99468.22;;;5.45;91.28
26865;BME280;40618;51.166;10.322;2023-02-12T15:43:30;99463.94;;;5.44;90.87
26865;BME280;40618;51.166;10.322;2023-02-12T15:46:02;99457.09;;;5.45;91.05